Time;durP1;ratioP1;P1;durP2;ratioP2;P2;SDS_P1;SDS_P2;PMS_P1;PMS_P2;Temp;Humidity;BMP_temperature;BMP_pressure;BME280_temperature;BME280_humidity;BME280_pressure;Samples;Min_cycle;Max_cycle;Signal;HPM_P1;HPM_P2
2022/04/03 00:00:40;;;;;;;3.28;0.70;;;;;;;;;;5044323;28;20045;-67
2022/04/03 00:03:08;;;;;;;2.20;0.80;;;;;;;;;;5046303;28;20389;-64
2022/04/03 00:05:38;;;;;;;5.05;0.88;;;;;;;;;;5045588;28;20126;-67
2022/04/03 00:08:08;;;;;;;2.78;0.90;;;;;;;;;;5033916;28;20083;-65
2022/04/03 00:10:36;;;;;;;3.67;1.00;;;;;;;;;;5042999;28;20033;-66
2022/04/03 00:13:04;;;;;;;3.55;1.25;;;;;;;;;;5036163;28;20045;-66
2022/04/03 00:15:31;;;;;;;2.88;0.82;;;;;;;;;;5040450;28;20053;-65
2022/04/03 00:17:58;;;;;;;3.53;1.00;;;;;;;;;;5052718;28;20041;-65
2022/04/03 00:20:25;;;;;;;2.55;0.90;;;;;;;;;;5021353;28;20057;-65
2022/04/03 00:22:54;;;;;;;2.53;0.77;;;;;;;;;;5043812;28;20099;-65
2022/04/03 00:25:21;;;;;;;2.15;0.77;;;;;;;;;;5041394;28;20098;-67
2022/04/03 00:27:48;;;;;;;3.47;0.90;;;;;;;;;;5058249;28;20405;-65
2022/04/03 00:30:17;;;;;;;3.08;1.00;;;;;;;;;;5033068;28;20400;-66
2022/04/03 00:32:44;;;;;;;3.58;1.13;;;;;;;;;;5044065;28;20033;-65
2022/04/03 00:35:11;;;;;;;2.55;0.82;;;;;;;;;;5036317;28;20048;-64
2022/04/03 00:37:40;;;;;;;4.53;1.00;;;;;;;;;;5054372;28;20052;-65
2022/04/03 00:40:07;;;;;;;3.38;1.08;;;;;;;;;;5051176;28;20107;-65
2022/04/03 00:42:36;;;;;;;1.77;0.73;;;;;;;;;;5039823;28;20067;-65
2022/04/03 00:45:06;;;;;;;3.08;0.82;;;;;;;;;;5043354;28;20037;-66
2022/04/03 00:47:33;;;;;;;2.65;0.77;;;;;;;;;;5038663;28;20065;-65
2022/04/03 00:50:03;;;;;;;2.38;0.85;;;;;;;;;;5039494;28;20051;-66
2022/04/03 00:52:30;;;;;;;3.35;0.90;;;;;;;;;;5042888;28;20052;-65
2022/04/03 00:54:57;;;;;;;1.50;0.60;;;;;;;;;;5040795;28;20045;-65
2022/04/03 00:57:26;;;;;;;2.67;0.90;;;;;;;;;;5050764;28;20059;-64
2022/04/03 00:59:53;;;;;;;2.60;0.98;;;;;;;;;;5041125;28;20045;-65
2022/04/03 01:02:20;;;;;;;2.90;0.90;;;;;;;;;;5041473;28;21097;-66
2022/04/03 01:04:47;;;;;;;2.47;0.80;;;;;;;;;;5040436;28;20052;-66
2022/04/03 01:07:14;;;;;;;2.42;0.80;;;;;;;;;;5032153;28;20034;-64
2022/04/03 01:09:41;;;;;;;2.03;0.65;;;;;;;;;;5039426;28;20034;-64
2022/04/03 01:12:08;;;;;;;2.42;0.73;;;;;;;;;;5041515;28;20111;-66
2022/04/03 01:14:39;;;;;;;1.92;0.70;;;;;;;;;;5039355;28;20033;-64
2022/04/03 01:17:07;;;;;;;3.10;0.80;;;;;;;;;;5035495;28;20048;-66
2022/04/03 01:19:37;;;;;;;1.65;0.50;;;;;;;;;;5042368;28;20041;-66
2022/04/03 01:22:05;;;;;;;1.25;0.45;;;;;;;;;;5043650;28;20499;-64
2022/04/03 01:24:31;;;;;;;1.48;0.50;;;;;;;;;;5041172;28;20044;-64
2022/04/03 01:26:58;;;;;;;1.50;0.50;;;;;;;;;;5042177;28;20078;-66
2022/04/03 01:29:26;;;;;;;1.58;0.50;;;;;;;;;;5045096;28;20037;-65
2022/04/03 01:31:53;;;;;;;1.15;0.40;;;;;;;;;;5035546;28;20037;-65
2022/04/03 01:34:20;;;;;;;1.38;0.50;;;;;;;;;;5044190;28;20041;-65
2022/04/03 01:36:48;;;;;;;1.17;0.40;;;;;;;;;;5052600;28;20640;-65
2022/04/03 01:39:15;;;;;;;1.40;0.40;;;;;;;;;;5037787;28;20041;-65
2022/04/03 01:41:43;;;;;;;1.33;0.40;;;;;;;;;;5031333;28;20052;-65
2022/04/03 01:44:10;;;;;;;1.83;0.50;;;;;;;;;;5042622;28;20048;-65
2022/04/03 01:46:37;;;;;;;1.42;0.47;;;;;;;;;;5031540;28;20033;-65
2022/04/03 01:49:05;;;;;;;2.10;0.60;;;;;;;;;;5042298;28;20047;-65
2022/04/03 01:51:32;;;;;;;1.98;0.55;;;;;;;;;;5040766;28;20036;-65
2022/04/03 01:53:59;;;;;;;2.53;0.80;;;;;;;;;;5039985;28;20037;-65
2022/04/03 01:56:26;;;;;;;1.63;0.60;;;;;;;;;;5040991;28;20051;-65
2022/04/03 01:58:53;;;;;;;2.60;0.70;;;;;;;;;;5039223;28;20068;-65
2022/04/03 02:01:20;;;;;;;2.10;0.70;;;;;;;;;;5042451;28;20053;-64
2022/04/03 02:03:46;;;;;;;2.63;0.90;;;;;;;;;;5049422;28;20037;-65
2022/04/03 02:06:15;;;;;;;5.35;1.38;;;;;;;;;;5044282;28;20125;-64
2022/04/03 02:08:43;;;;;;;2.05;0.70;;;;;;;;;;5044158;28;20044;-65
2022/04/03 02:11:10;;;;;;;4.93;1.20;;;;;;;;;;5047048;28;20513;-64
2022/04/03 02:13:37;;;;;;;2.67;0.80;;;;;;;;;;5045893;28;20045;-65
2022/04/03 02:16:03;;;;;;;3.42;0.90;;;;;;;;;;5045857;28;20059;-64
2022/04/03 02:18:30;;;;;;;2.90;1.00;;;;;;;;;;5043626;28;20068;-64
2022/04/03 02:20:57;;;;;;;2.78;0.60;;;;;;;;;;5026694;28;20049;-64
2022/04/03 02:23:24;;;;;;;3.20;0.70;;;;;;;;;;5045653;28;20044;-64
2022/04/03 02:25:52;;;;;;;1.90;0.68;;;;;;;;;;5036554;28;20045;-65
2022/04/03 02:28:19;;;;;;;3.13;0.73;;;;;;;;;;5045429;28;20055;-64
2022/04/03 02:30:45;;;;;;;2.13;0.70;;;;;;;;;;5033737;28;20514;-65
2022/04/03 02:33:12;;;;;;;2.20;0.75;;;;;;;;;;5022330;28;20041;-65
2022/04/03 02:35:39;;;;;;;2.30;0.80;;;;;;;;;;5045577;28;20030;-64
2022/04/03 02:38:07;;;;;;;2.10;0.70;;;;;;;;;;5045102;28;20064;-65
2022/04/03 02:40:34;;;;;;;1.92;0.60;;;;;;;;;;5035550;28;20045;-65
2022/04/03 02:43:02;;;;;;;2.38;0.73;;;;;;;;;;5045725;28;20056;-65
2022/04/03 02:45:28;;;;;;;2.10;0.65;;;;;;;;;;5041853;28;20441;-64
2022/04/03 02:47:56;;;;;;;2.00;0.65;;;;;;;;;;5035619;28;20142;-65
2022/04/03 02:50:24;;;;;;;1.90;0.65;;;;;;;;;;5034500;28;20038;-65
2022/04/03 02:52:51;;;;;;;1.88;0.68;;;;;;;;;;5045124;28;20033;-65
2022/04/03 02:55:19;;;;;;;2.20;0.70;;;;;;;;;;5045374;28;20509;-64
2022/04/03 02:57:46;;;;;;;2.28;0.75;;;;;;;;;;5043776;28;20037;-65
2022/04/03 03:00:17;;;;;;;2.60;0.88;;;;;;;;;;5043797;28;20055;-65
2022/04/03 03:02:51;;;;;;;2.70;0.70;;;;;;;;;;5044774;28;20035;-65
2022/04/03 03:05:18;;;;;;;2.55;0.80;;;;;;;;;;5058141;28;21924;-64
2022/04/03 03:07:49;;;;;;;3.13;0.90;;;;;;;;;;5043993;28;22197;-64
2022/04/03 03:10:17;;;;;;;2.17;0.80;;;;;;;;;;5045285;28;20210;-63
2022/04/03 03:12:44;;;;;;;2.95;1.10;;;;;;;;;;5044583;28;20122;-64
2022/04/03 03:15:12;;;;;;;2.30;0.70;;;;;;;;;;5045395;28;20037;-64
2022/04/03 03:17:39;;;;;;;2.15;0.60;;;;;;;;;;5043871;28;20049;-64
2022/04/03 03:20:06;;;;;;;2.20;0.80;;;;;;;;;;5044142;28;20049;-65
2022/04/03 03:22:33;;;;;;;2.08;0.68;;;;;;;;;;5034081;28;20037;-65
2022/04/03 03:25:00;;;;;;;4.75;0.77;;;;;;;;;;5036033;28;20040;-64
2022/04/03 03:27:27;;;;;;;5.72;1.42;;;;;;;;;;5041256;28;20033;-64
2022/04/03 03:29:53;;;;;;;3.45;1.60;;;;;;;;;;5018317;28;20069;-63
2022/04/03 03:32:20;;;;;;;6.07;1.00;;;;;;;;;;5028132;28;20040;-63
2022/04/03 03:34:47;;;;;;;2.40;0.70;;;;;;;;;;5033971;28;20040;-64
2022/04/03 03:37:14;;;;;;;2.53;0.90;;;;;;;;;;5030024;28;20055;-63
2022/04/03 03:39:40;;;;;;;2.40;0.80;;;;;;;;;;5040377;28;20052;-64
2022/04/03 03:42:07;;;;;;;2.17;0.70;;;;;;;;;;5042831;28;20060;-64
2022/04/03 03:44:34;;;;;;;2.53;0.88;;;;;;;;;;5042318;28;21775;-64
2022/04/03 03:47:01;;;;;;;4.03;1.13;;;;;;;;;;5024530;28;20049;-63
2022/04/03 03:49:28;;;;;;;3.17;1.00;;;;;;;;;;5017283;28;20044;-63
2022/04/03 03:51:55;;;;;;;3.40;1.30;;;;;;;;;;5026872;28;20105;-63
2022/04/03 03:54:22;;;;;;;2.90;1.10;;;;;;;;;;5016533;28;20044;-64
2022/04/03 03:56:49;;;;;;;4.38;1.17;;;;;;;;;;5048664;28;20967;-64
2022/04/03 03:59:16;;;;;;;4.93;1.20;;;;;;;;;;5056786;28;20045;-64
2022/04/03 04:01:43;;;;;;;3.75;1.33;;;;;;;;;;5042367;28;20512;-64
2022/04/03 04:04:10;;;;;;;3.83;1.38;;;;;;;;;;5054703;28;20044;-66
2022/04/03 04:06:37;;;;;;;3.65;1.40;;;;;;;;;;5041583;28;20040;-67
2022/04/03 04:09:04;;;;;;;7.05;1.60;;;;;;;;;;5041431;28;20087;-65
2022/04/03 04:11:31;;;;;;;5.90;2.00;;;;;;;;;;5044055;28;20043;-64
2022/04/03 04:13:58;;;;;;;6.18;2.03;;;;;;;;;;5043240;28;20386;-64
2022/04/03 04:16:25;;;;;;;6.85;2.00;;;;;;;;;;5052064;28;20099;-65
2022/04/03 04:18:51;;;;;;;5.97;2.28;;;;;;;;;;5042623;28;20056;-64
2022/04/03 04:21:18;;;;;;;5.63;2.35;;;;;;;;;;5041977;28;20135;-64
2022/04/03 04:23:45;;;;;;;6.55;2.20;;;;;;;;;;5041959;28;20060;-65
2022/04/03 04:26:13;;;;;;;5.20;1.98;;;;;;;;;;5043092;28;20397;-64
2022/04/03 04:28:40;;;;;;;6.18;2.20;;;;;;;;;;5040995;28;20082;-64
2022/04/03 04:31:07;;;;;;;3.40;1.58;;;;;;;;;;5040926;28;20056;-65
2022/04/03 04:33:33;;;;;;;5.75;2.10;;;;;;;;;;5042136;28;20102;-65
2022/04/03 04:36:00;;;;;;;7.22;2.08;;;;;;;;;;5031920;28;20067;-64
2022/04/03 04:38:27;;;;;;;4.45;2.00;;;;;;;;;;5053049;28;20040;-64
2022/04/03 04:40:54;;;;;;;5.43;1.48;;;;;;;;;;5052563;28;20049;-64
2022/04/03 04:43:21;;;;;;;4.05;1.67;;;;;;;;;;5032040;28;20033;-65
2022/04/03 04:45:48;;;;;;;3.92;1.50;;;;;;;;;;5042307;28;20048;-64
2022/04/03 04:48:16;;;;;;;3.85;1.65;;;;;;;;;;5032780;28;20135;-64
2022/04/03 04:50:42;;;;;;;3.88;1.90;;;;;;;;;;5040236;28;20123;-64
2022/04/03 04:53:09;;;;;;;5.47;2.20;;;;;;;;;;5043691;28;20490;-64
2022/04/03 04:55:36;;;;;;;4.15;2.03;;;;;;;;;;5059546;28;20131;-65
2022/04/03 04:58:03;;;;;;;4.97;2.03;;;;;;;;;;5032596;28;20032;-66
2022/04/03 05:00:30;;;;;;;5.70;2.20;;;;;;;;;;5042809;28;20098;-64
2022/04/03 05:02:57;;;;;;;5.20;1.75;;;;;;;;;;5044547;28;20405;-64
2022/04/03 05:05:26;;;;;;;5.10;2.33;;;;;;;;;;5040215;28;20041;-64
2022/04/03 05:07:55;;;;;;;7.72;2.47;;;;;;;;;;5041103;28;20047;-65
2022/04/03 05:10:22;;;;;;;6.88;2.00;;;;;;;;;;5041638;28;20037;-64
2022/04/03 05:12:48;;;;;;;5.05;2.72;;;;;;;;;;5033077;28;20064;-65
2022/04/03 05:15:18;;;;;;;5.03;2.40;;;;;;;;;;5040936;28;21030;-66
2022/04/03 05:17:45;;;;;;;4.88;2.30;;;;;;;;;;5018539;28;20056;-65
2022/04/03 05:20:15;;;;;;;7.25;2.63;;;;;;;;;;5040243;28;20077;-65
2022/04/03 05:22:42;;;;;;;5.45;2.53;;;;;;;;;;5039652;28;20731;-65
2022/04/03 05:25:11;;;;;;;5.43;2.35;;;;;;;;;;5039952;28;20040;-64
2022/04/03 05:27:41;;;;;;;6.20;2.42;;;;;;;;;;5041717;28;20040;-64
2022/04/03 05:30:09;;;;;;;6.28;2.70;;;;;;;;;;5040927;28;20449;-66
2022/04/03 05:32:39;;;;;;;7.05;2.55;;;;;;;;;;5040844;28;20041;-65
2022/04/03 05:35:06;;;;;;;5.65;2.20;;;;;;;;;;5021622;28;20044;-66
2022/04/03 05:37:33;;;;;;;6.13;2.58;;;;;;;;;;5029380;28;20044;-65
2022/04/03 05:40:00;;;;;;;5.72;2.25;;;;;;;;;;5040155;28;20045;-65
2022/04/03 05:42:26;;;;;;;5.28;2.30;;;;;;;;;;5044189;28;20397;-64
2022/04/03 05:44:53;;;;;;;7.18;2.38;;;;;;;;;;5044653;28;20049;-64
2022/04/03 05:47:20;;;;;;;5.70;2.05;;;;;;;;;;5045204;28;20045;-65
2022/04/03 05:49:47;;;;;;;5.43;2.22;;;;;;;;;;5044842;28;20041;-65
2022/04/03 05:52:14;;;;;;;6.15;2.15;;;;;;;;;;5045783;28;20047;-65
2022/04/03 05:54:41;;;;;;;4.65;2.22;;;;;;;;;;5040760;28;21027;-64
2022/04/03 05:57:09;;;;;;;4.82;2.17;;;;;;;;;;5039148;28;20130;-65
2022/04/03 05:59:35;;;;;;;4.45;2.40;;;;;;;;;;5043325;28;20122;-64
2022/04/03 06:02:02;;;;;;;7.78;2.45;;;;;;;;;;5045129;28;20059;-66
2022/04/03 06:04:29;;;;;;;5.57;1.98;;;;;;;;;;5044211;28;20037;-66
2022/04/03 06:06:56;;;;;;;5.78;2.70;;;;;;;;;;5044767;28;20040;-66
2022/04/03 06:09:23;;;;;;;3.85;1.73;;;;;;;;;;5044056;28;20051;-66
2022/04/03 06:11:51;;;;;;;4.75;2.05;;;;;;;;;;5045472;28;20095;-65
2022/04/03 06:14:18;;;;;;;5.90;2.25;;;;;;;;;;5034135;28;20143;-65
2022/04/03 06:16:44;;;;;;;4.90;1.90;;;;;;;;;;5059555;28;20067;-66
2022/04/03 06:19:12;;;;;;;3.63;1.67;;;;;;;;;;5043743;28;20029;-65
2022/04/03 06:21:39;;;;;;;4.47;2.00;;;;;;;;;;5044173;28;20706;-65
2022/04/03 06:24:06;;;;;;;4.32;2.10;;;;;;;;;;5042805;28;20035;-65
2022/04/03 06:26:33;;;;;;;4.63;2.08;;;;;;;;;;5031010;28;20040;-65
2022/04/03 06:29:00;;;;;;;4.35;1.85;;;;;;;;;;5043941;28;20283;-65
2022/04/03 06:31:26;;;;;;;3.72;1.75;;;;;;;;;;5043774;28;20108;-66
2022/04/03 06:33:53;;;;;;;4.13;1.88;;;;;;;;;;5033378;28;20128;-65
2022/04/03 06:36:20;;;;;;;5.30;2.13;;;;;;;;;;5043887;28;20040;-66
2022/04/03 06:38:47;;;;;;;4.20;1.90;;;;;;;;;;5057884;28;20048;-66
2022/04/03 06:41:14;;;;;;;3.80;1.90;;;;;;;;;;5054350;28;20052;-66
2022/04/03 06:43:41;;;;;;;4.22;1.42;;;;;;;;;;5039472;28;20642;-66
2022/04/03 06:46:07;;;;;;;4.05;1.70;;;;;;;;;;5023917;28;20577;-65
2022/04/03 06:48:34;;;;;;;4.45;1.90;;;;;;;;;;5041260;28;20807;-66
2022/04/03 06:51:01;;;;;;;5.43;2.20;;;;;;;;;;5044050;28;20045;-65
2022/04/03 06:53:28;;;;;;;4.25;2.15;;;;;;;;;;5042053;28;20041;-65
2022/04/03 06:55:55;;;;;;;8.07;2.40;;;;;;;;;;5037487;28;20041;-64
2022/04/03 06:58:22;;;;;;;5.30;2.13;;;;;;;;;;5038285;28;20400;-65
2022/04/03 07:00:49;;;;;;;4.20;1.92;;;;;;;;;;5043521;28;20063;-65
2022/04/03 07:03:16;;;;;;;6.75;2.42;;;;;;;;;;5042876;28;20067;-64
2022/04/03 07:05:43;;;;;;;6.25;2.28;;;;;;;;;;5042671;28;20578;-65
2022/04/03 07:08:09;;;;;;;6.03;2.45;;;;;;;;;;5042965;28;20083;-64
2022/04/03 07:10:36;;;;;;;4.30;2.10;;;;;;;;;;5031207;28;20107;-64
2022/04/03 07:13:03;;;;;;;6.50;2.50;;;;;;;;;;5043124;28;21794;-64
2022/04/03 07:15:29;;;;;;;5.03;2.25;;;;;;;;;;5041601;28;20057;-65
2022/04/03 07:17:56;;;;;;;5.18;2.30;;;;;;;;;;5042628;28;20036;-65
2022/04/03 07:20:23;;;;;;;5.78;2.42;;;;;;;;;;5042228;28;20060;-65
2022/04/03 07:22:49;;;;;;;5.55;2.40;;;;;;;;;;5041924;28;20849;-64
2022/04/03 07:25:16;;;;;;;7.03;2.85;;;;;;;;;;5044329;28;20065;-64
2022/04/03 07:27:43;;;;;;;4.38;2.33;;;;;;;;;;5032220;28;20123;-66
2022/04/03 07:30:12;;;;;;;5.60;2.95;;;;;;;;;;5042461;28;22278;-64
2022/04/03 07:32:39;;;;;;;5.53;2.63;;;;;;;;;;5042968;28;20068;-65
2022/04/03 07:35:06;;;;;;;6.40;2.40;;;;;;;;;;5042737;28;20079;-65
2022/04/03 07:37:33;;;;;;;5.88;2.65;;;;;;;;;;5054127;28;20025;-64
2022/04/03 07:40:00;;;;;;;4.50;2.15;;;;;;;;;;5043421;28;20045;-64
2022/04/03 07:42:27;;;;;;;4.90;2.30;;;;;;;;;;5043079;28;20040;-64
2022/04/03 07:44:53;;;;;;;4.75;2.30;;;;;;;;;;5038476;28;20398;-65
2022/04/03 07:47:20;;;;;;;6.03;2.47;;;;;;;;;;5041040;28;20098;-65
2022/04/03 07:49:47;;;;;;;5.00;2.15;;;;;;;;;;5038474;28;20319;-65
2022/04/03 07:52:15;;;;;;;5.22;2.22;;;;;;;;;;5028800;28;20043;-65
2022/04/03 07:54:41;;;;;;;5.05;2.25;;;;;;;;;;5039083;28;20194;-65
2022/04/03 07:57:10;;;;;;;4.15;2.08;;;;;;;;;;5037220;28;20174;-65
2022/04/03 07:59:37;;;;;;;4.75;2.05;;;;;;;;;;5041856;28;20043;-64
2022/04/03 08:02:03;;;;;;;5.07;2.25;;;;;;;;;;5042060;28;20099;-65
2022/04/03 08:04:30;;;;;;;5.07;2.05;;;;;;;;;;5040739;28;20037;-65
2022/04/03 08:06:57;;;;;;;5.10;2.08;;;;;;;;;;5041072;28;20049;-64
2022/04/03 08:09:24;;;;;;;5.40;2.00;;;;;;;;;;5041061;28;20155;-64
2022/04/03 08:11:50;;;;;;;5.45;2.00;;;;;;;;;;5042320;28;20040;-64
2022/04/03 08:14:18;;;;;;;4.53;1.80;;;;;;;;;;5041186;28;20087;-65
2022/04/03 08:16:45;;;;;;;5.32;2.03;;;;;;;;;;5040537;28;20076;-65
2022/04/03 08:19:12;;;;;;;4.28;1.80;;;;;;;;;;5040771;28;20073;-65
2022/04/03 08:21:38;;;;;;;3.80;1.70;;;;;;;;;;5040775;28;20098;-65
2022/04/03 08:24:05;;;;;;;4.38;1.50;;;;;;;;;;5042290;28;20124;-64
2022/04/03 08:26:32;;;;;;;5.20;2.00;;;;;;;;;;5052571;28;20095;-64
2022/04/03 08:28:59;;;;;;;3.63;1.60;;;;;;;;;;5026245;28;20045;-64
2022/04/03 08:31:27;;;;;;;4.93;1.75;;;;;;;;;;5037488;28;20045;-65
2022/04/03 08:33:55;;;;;;;3.83;1.70;;;;;;;;;;5041877;28;20060;-64
2022/04/03 08:36:21;;;;;;;4.07;1.40;;;;;;;;;;5041512;28;20123;-64
2022/04/03 08:38:50;;;;;;;4.25;1.70;;;;;;;;;;5032143;28;20144;-64
2022/04/03 08:41:17;;;;;;;3.42;1.50;;;;;;;;;;5042447;28;21835;-65
2022/04/03 08:43:46;;;;;;;3.42;1.50;;;;;;;;;;5039219;28;20087;-65
2022/04/03 08:46:13;;;;;;;4.25;1.60;;;;;;;;;;5028470;28;20079;-65
2022/04/03 08:48:44;;;;;;;4.55;1.90;;;;;;;;;;5043530;28;20044;-64
2022/04/03 08:51:11;;;;;;;6.03;2.15;;;;;;;;;;5036670;28;20048;-63
2022/04/03 08:53:39;;;;;;;4.80;2.15;;;;;;;;;;5041474;28;20037;-64
2022/04/03 08:56:06;;;;;;;4.97;2.13;;;;;;;;;;5034312;28;20101;-64
2022/04/03 08:58:33;;;;;;;4.65;1.90;;;;;;;;;;5054541;28;20055;-63
2022/04/03 09:01:01;;;;;;;4.38;1.80;;;;;;;;;;5045608;28;20076;-65
2022/04/03 09:03:27;;;;;;;3.38;1.60;;;;;;;;;;5032872;28;20501;-65
2022/04/03 09:06:11;;;;;;;4.03;1.80;;;;;;;;;;5043258;28;20374;-65
2022/04/03 09:08:37;;;;;;;4.40;1.88;;;;;;;;;;5042039;28;20064;-64
2022/04/03 09:11:07;;;;;;;5.20;1.60;;;;;;;;;;5056185;28;20045;-65
2022/04/03 09:13:34;;;;;;;3.63;1.45;;;;;;;;;;5054586;28;20044;-65
2022/04/03 09:16:01;;;;;;;4.25;1.60;;;;;;;;;;5048077;28;20121;-64
2022/04/03 09:18:43;;;;;;;3.53;1.40;;;;;;;;;;5046652;28;20036;-64
2022/04/03 09:21:20;;;;;;;3.97;1.20;;;;;;;;;;5048503;28;20136;-64
2022/04/03 09:23:57;;;;;;;3.75;1.70;;;;;;;;;;5048144;28;20036;-65
2022/04/03 09:26:24;;;;;;;3.30;1.58;;;;;;;;;;5046618;28;20041;-65
2022/04/03 09:28:51;;;;;;;3.22;1.70;;;;;;;;;;5049406;28;20057;-64
2022/04/03 09:31:35;;;;;;;5.22;1.70;;;;;;;;;;5040707;28;20075;-65
2022/04/03 09:34:03;;;;;;;3.47;1.40;;;;;;;;;;5049350;28;20045;-65
2022/04/03 09:36:31;;;;;;;4.55;1.58;;;;;;;;;;5061275;28;20128;-64
2022/04/03 09:39:27;;;;;;;3.95;1.63;;;;;;;;;;5045936;28;20033;-64
2022/04/03 09:42:04;;;;;;;3.58;1.55;;;;;;;;;;5041074;28;20063;-64
2022/04/03 09:44:32;;;;;;;3.90;1.48;;;;;;;;;;5040808;28;20452;-65
2022/04/03 09:47:18;;;;;;;3.65;1.42;;;;;;;;;;5041791;28;20098;-65
2022/04/03 09:49:46;;;;;;;4.32;1.45;;;;;;;;;;5038375;28;21062;-65
2022/04/03 09:52:13;;;;;;;3.38;1.38;;;;;;;;;;5040148;28;20059;-65
2022/04/03 09:54:40;;;;;;;4.05;1.70;;;;;;;;;;5054792;28;20052;-64
2022/04/03 09:57:33;;;;;;;5.05;1.27;;;;;;;;;;5039419;28;20556;-65
2022/04/03 10:00:00;;;;;;;4.07;1.60;;;;;;;;;;5040476;28;20782;-64
2022/04/03 10:02:26;;;;;;;4.35;1.88;;;;;;;;;;5033104;28;20063;-64
2022/04/03 10:04:55;;;;;;;4.05;1.60;;;;;;;;;;5044283;28;20540;-65
2022/04/03 10:07:22;;;;;;;3.50;1.70;;;;;;;;;;5041814;28;20049;-64
2022/04/03 10:09:50;;;;;;;3.40;1.50;;;;;;;;;;5042916;28;20048;-64
2022/04/03 10:12:20;;;;;;;3.92;1.40;;;;;;;;;;5045249;28;20167;-64
2022/04/03 10:14:48;;;;;;;4.38;1.70;;;;;;;;;;5041798;28;20051;-65
2022/04/03 10:17:15;;;;;;;3.20;1.50;;;;;;;;;;5044295;28;20068;-64
2022/04/03 10:19:41;;;;;;;3.65;1.40;;;;;;;;;;5032789;28;20051;-64
2022/04/03 10:22:12;;;;;;;4.32;1.40;;;;;;;;;;5043383;28;20136;-63
2022/04/03 10:24:40;;;;;;;3.65;1.65;;;;;;;;;;5042674;28;20485;-64
2022/04/03 10:27:10;;;;;;;7.60;1.58;;;;;;;;;;5040897;28;20067;-64
2022/04/03 10:29:41;;;;;;;3.63;1.35;;;;;;;;;;5044528;28;20461;-65
2022/04/03 10:32:08;;;;;;;4.15;1.58;;;;;;;;;;5046484;28;20041;-64
2022/04/03 10:34:48;;;;;;;3.67;1.63;;;;;;;;;;5042484;28;20116;-64
2022/04/03 10:37:28;;;;;;;5.10;1.58;;;;;;;;;;5055565;28;20041;-64
2022/04/03 10:39:55;;;;;;;4.50;1.60;;;;;;;;;;5043395;28;20055;-65
2022/04/03 10:42:25;;;;;;;3.70;1.45;;;;;;;;;;5042579;28;20256;-65
2022/04/03 10:45:10;;;;;;;4.80;1.63;;;;;;;;;;5043828;28;20620;-64
2022/04/03 10:47:37;;;;;;;3.65;1.60;;;;;;;;;;5043595;28;20564;-65
2022/04/03 10:50:04;;;;;;;5.43;1.75;;;;;;;;;;5051461;28;20056;-65
2022/04/03 10:52:40;;;;;;;3.25;1.20;;;;;;;;;;5030666;28;20037;-65
2022/04/03 10:55:25;;;;;;;5.22;1.90;;;;;;;;;;5046165;28;20441;-64
2022/04/03 10:57:58;;;;;;;4.82;1.63;;;;;;;;;;5033199;28;20052;-64
2022/04/03 11:00:25;;;;;;;3.20;1.40;;;;;;;;;;5043056;28;20053;-66
2022/04/03 11:02:52;;;;;;;6.10;1.80;;;;;;;;;;5044378;28;20579;-65
2022/04/03 11:05:22;;;;;;;3.67;1.55;;;;;;;;;;5047129;28;20175;-65
2022/04/03 11:07:50;;;;;;;4.00;1.60;;;;;;;;;;5046817;28;20064;-64
2022/04/03 11:10:37;;;;;;;7.38;1.80;;;;;;;;;;5047106;28;20166;-64
2022/04/03 11:13:08;;;;;;;5.65;1.60;;;;;;;;;;5044142;28;20040;-64
2022/04/03 11:15:58;;;;;;;4.47;1.67;;;;;;;;;;5042928;28;20466;-64
2022/04/03 11:18:28;;;;;;;4.93;1.52;;;;;;;;;;5038980;28;20059;-65
2022/04/03 11:21:07;;;;;;;5.03;1.85;;;;;;;;;;5043971;28;20049;-63
2022/04/03 11:23:35;;;;;;;5.95;1.67;;;;;;;;;;5035653;28;20080;-64
2022/04/03 11:26:03;;;;;;;11.45;1.70;;;;;;;;;;5046634;28;20539;-63
2022/04/03 11:28:30;;;;;;;10.32;1.90;;;;;;;;;;5043544;28;20462;-64
2022/04/03 11:30:56;;;;;;;3.20;1.40;;;;;;;;;;5039416;28;20053;-64
2022/04/03 11:33:23;;;;;;;6.50;1.40;;;;;;;;;;5040010;28;20060;-64
2022/04/03 11:35:50;;;;;;;13.50;1.58;;;;;;;;;;5044956;28;20051;-64
2022/04/03 11:38:17;;;;;;;5.53;1.98;;;;;;;;;;5032859;28;20683;-64
2022/04/03 11:40:46;;;;;;;2.90;1.30;;;;;;;;;;5038738;28;20057;-64
2022/04/03 11:43:22;;;;;;;4.75;1.73;;;;;;;;;;5034515;28;20037;-64
2022/04/03 11:45:56;;;;;;;4.53;1.73;;;;;;;;;;5040936;28;20662;-64
2022/04/03 11:48:25;;;;;;;3.97;1.50;;;;;;;;;;5043794;28;20115;-64
2022/04/03 11:51:03;;;;;;;10.98;1.50;;;;;;;;;;5054620;28;20044;-65
2022/04/03 11:53:29;;;;;;;5.78;1.50;;;;;;;;;;5042741;28;20036;-64
2022/04/03 11:55:56;;;;;;;6.20;1.67;;;;;;;;;;5042944;28;20045;-64
2022/04/03 11:58:32;;;;;;;6.60;1.58;;;;;;;;;;5023443;28;20033;-64
2022/04/03 12:00:59;;;;;;;4.45;1.40;;;;;;;;;;5042638;28;20051;-64
2022/04/03 12:03:27;;;;;;;6.53;1.30;;;;;;;;;;5039678;28;20041;-64
2022/04/03 12:06:14;;;;;;;5.13;1.27;;;;;;;;;;5034369;28;20040;-64
2022/04/03 12:08:42;;;;;;;11.00;1.70;;;;;;;;;;5040515;28;20041;-64
2022/04/03 12:11:16;;;;;;;7.68;1.50;;;;;;;;;;5042966;28;20040;-64
2022/04/03 12:13:42;;;;;;;4.38;1.10;;;;;;;;;;5040584;28;20060;-64
2022/04/03 12:16:09;;;;;;;4.15;1.52;;;;;;;;;;5033889;28;20057;-65
2022/04/03 12:18:49;;;;;;;3.80;1.50;;;;;;;;;;5037522;28;20037;-64
2022/04/03 12:21:17;;;;;;;4.35;1.88;;;;;;;;;;5030126;28;21669;-67
2022/04/03 12:24:03;;;;;;;3.97;1.70;;;;;;;;;;5040567;28;20592;-64
2022/04/03 12:26:30;;;;;;;4.82;1.85;;;;;;;;;;5042704;28;20051;-64
2022/04/03 12:28:57;;;;;;;13.10;2.15;;;;;;;;;;5035424;28;20040;-64
2022/04/03 12:31:30;;;;;;;11.82;1.98;;;;;;;;;;5037125;28;20036;-65
2022/04/03 12:34:16;;;;;;;19.02;2.33;;;;;;;;;;5035071;28;20575;-64
2022/04/03 12:36:44;;;;;;;4.07;1.50;;;;;;;;;;5039310;28;20052;-63
2022/04/03 12:39:31;;;;;;;4.20;1.60;;;;;;;;;;5031799;28;20170;-63
2022/04/03 12:42:08;;;;;;;9.90;1.63;;;;;;;;;;5026848;28;20181;-64
2022/04/03 12:45:10;;;;;;;4.63;1.52;;;;;;;;;;5029533;28;20079;-64
2022/04/03 12:47:39;;;;;;;11.30;1.80;;;;;;;;;;5032381;28;20041;-64
2022/04/03 12:50:06;;;;;;;6.40;2.00;;;;;;;;;;5039261;28;20037;-63
2022/04/03 12:52:45;;;;;;;3.75;1.38;;;;;;;;;;5039924;28;20041;-64
2022/04/03 12:55:24;;;;;;;3.47;1.13;;;;;;;;;;5040286;28;20040;-64
2022/04/03 13:00:55;;;;;;;4.95;1.30;;;;;;;;;;5039261;28;20058;-65
2022/04/03 13:03:33;;;;;;;7.05;1.45;;;;;;;;;;5053782;28;20064;-64
2022/04/03 13:06:07;;;;;;;3.15;1.13;;;;;;;;;;5040341;28;20041;-64
2022/04/03 13:08:54;;;;;;;4.57;1.60;;;;;;;;;;5039979;28;20051;-65
2022/04/03 13:11:31;;;;;;;6.68;3.45;;;;;;;;;;5041785;28;20072;-65
2022/04/03 13:14:19;;;;;;;11.05;2.42;;;;;;;;;;5039997;28;20123;-64
2022/04/03 13:16:48;;;;;;;5.88;1.73;;;;;;;;;;5039820;28;20199;-65
2022/04/03 13:19:15;;;;;;;7.28;2.00;;;;;;;;;;5041196;28;20037;-65
2022/04/03 13:21:42;;;;;;;15.32;1.98;;;;;;;;;;5037745;28;20405;-64
2022/04/03 13:24:10;;;;;;;18.50;2.83;;;;;;;;;;5034473;28;20045;-64
2022/04/03 13:26:36;;;;;;;17.45;2.35;;;;;;;;;;5040046;28;20033;-64
2022/04/03 13:29:03;;;;;;;6.25;1.88;;;;;;;;;;5040842;28;20087;-64
2022/04/03 13:31:30;;;;;;;8.30;2.10;;;;;;;;;;5040666;28;20041;-65
2022/04/03 13:33:58;;;;;;;15.25;4.40;;;;;;;;;;5041302;28;20545;-65
2022/04/03 13:36:25;;;;;;;9.05;2.33;;;;;;;;;;5031717;28;20033;-64
2022/04/03 13:38:51;;;;;;;8.07;2.30;;;;;;;;;;5023129;28;20048;-66
2022/04/03 13:41:19;;;;;;;7.00;1.73;;;;;;;;;;5051868;28;20513;-64
2022/04/03 13:43:46;;;;;;;4.70;1.58;;;;;;;;;;5050193;28;20500;-64
2022/04/03 13:46:13;;;;;;;6.25;2.22;;;;;;;;;;5040656;28;20051;-64
2022/04/03 13:48:39;;;;;;;17.40;2.53;;;;;;;;;;5040519;28;20037;-65
2022/04/03 13:51:07;;;;;;;6.15;1.88;;;;;;;;;;5040704;28;20159;-65
2022/04/03 13:53:34;;;;;;;9.82;1.73;;;;;;;;;;5040935;28;20037;-65
2022/04/03 13:56:01;;;;;;;18.63;2.90;;;;;;;;;;5041711;28;20513;-65
2022/04/03 13:58:28;;;;;;;10.32;1.88;;;;;;;;;;5040258;28;20056;-65
2022/04/03 14:00:55;;;;;;;4.28;1.48;;;;;;;;;;5042315;28;20793;-66
2022/04/03 14:03:22;;;;;;;14.32;1.63;;;;;;;;;;5060465;28;20968;-64
2022/04/03 14:05:52;;;;;;;9.20;1.40;;;;;;;;;;5046794;28;20044;-65
2022/04/03 14:08:19;;;;;;;4.97;1.20;;;;;;;;;;5045759;28;20052;-65
2022/04/03 14:10:47;;;;;;;4.00;1.10;;;;;;;;;;5011651;28;20048;-64
2022/04/03 14:13:15;;;;;;;6.43;1.27;;;;;;;;;;5036265;28;20644;-64
2022/04/03 14:15:42;;;;;;;5.78;1.25;;;;;;;;;;5020521;28;20059;-66
2022/04/03 14:18:08;;;;;;;5.60;1.48;;;;;;;;;;5034859;28;20036;-65
2022/04/03 14:20:35;;;;;;;7.75;1.50;;;;;;;;;;5043607;28;20049;-65
2022/04/03 14:23:02;;;;;;;4.75;1.27;;;;;;;;;;5037575;28;20042;-65
2022/04/03 14:25:29;;;;;;;6.55;1.23;;;;;;;;;;5040460;28;20506;-65
2022/04/03 14:27:57;;;;;;;4.05;1.08;;;;;;;;;;5043617;28;20111;-65
2022/04/03 14:30:24;;;;;;;5.15;1.23;;;;;;;;;;5044995;28;20104;-65
2022/04/03 14:32:51;;;;;;;7.28;1.52;;;;;;;;;;5046195;28;20045;-66
2022/04/03 14:35:18;;;;;;;5.25;1.30;;;;;;;;;;5044972;28;20091;-65
2022/04/03 14:37:45;;;;;;;6.25;1.30;;;;;;;;;;5046275;28;20048;-65
2022/04/03 14:40:13;;;;;;;5.07;1.25;;;;;;;;;;5045573;28;20939;-66
2022/04/03 14:42:41;;;;;;;3.35;1.20;;;;;;;;;;5043590;28;20532;-64
2022/04/03 14:45:08;;;;;;;5.15;1.20;;;;;;;;;;5038114;28;20044;-65
2022/04/03 14:47:35;;;;;;;4.25;1.15;;;;;;;;;;5021629;28;20091;-64
2022/04/03 14:50:04;;;;;;;7.90;1.10;;;;;;;;;;5046278;28;20033;-66
2022/04/03 14:52:31;;;;;;;5.28;1.50;;;;;;;;;;5033137;28;20379;-65
2022/04/03 14:54:58;;;;;;;9.80;1.73;;;;;;;;;;5028003;28;20091;-66